Time;durP1;ratioP1;P1;durP2;ratioP2;P2;SDS_P1;SDS_P2;PMS_P1;PMS_P2;Temp;Humidity;BMP_temperature;BMP_pressure;BME280_temperature;BME280_humidity;BME280_pressure;Samples;Min_cycle;Max_cycle;Signal;HPM_P1;HPM_P2
2023/04/23 00:01:25;;;;;;;7.13;5.10;;;;;;;;;;5053981;28;20028;-64
2023/04/23 00:03:53;;;;;;;6.03;4.68;;;;;;;;;;5053856;28;20031;-64
2023/04/23 00:06:21;;;;;;;6.45;4.60;;;;;;;;;;5052946;28;20431;-64
2023/04/23 00:08:48;;;;;;;4.72;4.30;;;;;;;;;;5054177;28;20029;-64
2023/04/23 00:11:14;;;;;;;5.13;4.13;;;;;;;;;;5054349;28;20025;-64
2023/04/23 00:13:41;;;;;;;5.00;4.05;;;;;;;;;;5053978;28;20028;-64
2023/04/23 00:16:09;;;;;;;5.40;4.40;;;;;;;;;;5053864;28;20039;-64
2023/04/23 00:18:36;;;;;;;5.68;4.00;;;;;;;;;;5053537;28;20447;-64
2023/04/23 00:21:02;;;;;;;7.03;4.28;;;;;;;;;;5053862;28;20024;-64
2023/04/23 00:23:29;;;;;;;5.78;4.10;;;;;;;;;;5053806;28;20025;-64
2023/04/23 00:25:56;;;;;;;6.00;4.75;;;;;;;;;;5053542;28;20035;-64
2023/04/23 00:28:22;;;;;;;5.13;4.40;;;;;;;;;;5053701;28;20025;-64
2023/04/23 00:30:48;;;;;;;7.88;5.00;;;;;;;;;;5053229;28;20045;-64
2023/04/23 00:33:15;;;;;;;7.22;5.18;;;;;;;;;;5053478;28;20023;-64
2023/04/23 00:35:41;;;;;;;6.70;5.57;;;;;;;;;;5053464;28;20401;-64
2023/04/23 00:38:07;;;;;;;7.30;5.78;;;;;;;;;;5053468;28;20037;-64
2023/04/23 00:40:34;;;;;;;7.07;6.38;;;;;;;;;;5052172;28;20025;-64
2023/04/23 00:43:00;;;;;;;6.97;6.28;;;;;;;;;;5053605;28;20021;-64
2023/04/23 00:45:27;;;;;;;8.00;6.80;;;;;;;;;;5053451;28;20023;-64
2023/04/23 00:47:53;;;;;;;7.60;6.38;;;;;;;;;;5053177;28;20020;-63
2023/04/23 00:50:20;;;;;;;5.93;5.30;;;;;;;;;;5053958;28;20021;-64
2023/04/23 00:52:46;;;;;;;5.05;4.55;;;;;;;;;;5053529;28;20033;-64
2023/04/23 00:55:12;;;;;;;4.68;4.28;;;;;;;;;;5053558;28;20028;-63
2023/04/23 00:57:39;;;;;;;4.15;3.75;;;;;;;;;;5053214;28;20359;-64
2023/04/23 01:00:07;;;;;;;4.40;2.75;;;;;;;;;;5053085;28;20021;-64
2023/04/23 01:02:35;;;;;;;2.30;2.10;;;;;;;;;;5053168;28;20038;-64
2023/04/23 01:05:03;;;;;;;2.20;2.00;;;;;;;;;;5053155;28;20013;-64
2023/04/23 01:07:31;;;;;;;2.13;1.92;;;;;;;;;;5052974;28;20078;-64
2023/04/23 01:09:57;;;;;;;1.90;1.70;;;;;;;;;;5053023;28;20489;-64
2023/04/23 01:12:24;;;;;;;1.83;1.73;;;;;;;;;;5052909;28;20051;-64
2023/04/23 01:14:51;;;;;;;2.45;1.92;;;;;;;;;;5052681;28;20103;-64
2023/04/23 01:17:17;;;;;;;3.05;1.77;;;;;;;;;;5052231;28;20033;-64
2023/04/23 01:19:43;;;;;;;4.30;2.30;;;;;;;;;;5053001;28;20029;-64
2023/04/23 01:22:10;;;;;;;2.15;1.98;;;;;;;;;;5052684;28;20470;-64
2023/04/23 01:24:38;;;;;;;2.60;2.40;;;;;;;;;;5052522;28;20013;-64
2023/04/23 01:27:04;;;;;;;2.92;2.50;;;;;;;;;;5052763;28;20031;-64
2023/04/23 01:29:31;;;;;;;3.60;3.03;;;;;;;;;;5052143;28;20436;-64
2023/04/23 01:31:58;;;;;;;3.72;3.22;;;;;;;;;;5052568;28;20025;-64
2023/04/23 01:34:25;;;;;;;4.13;3.50;;;;;;;;;;5052496;28;20029;-64
2023/04/23 01:36:51;;;;;;;3.83;3.05;;;;;;;;;;5052428;28;20047;-64
2023/04/23 01:39:18;;;;;;;3.40;3.10;;;;;;;;;;5052385;28;20021;-63
2023/04/23 01:41:44;;;;;;;6.13;3.55;;;;;;;;;;5052563;28;20470;-63
2023/04/23 01:44:10;;;;;;;3.67;3.17;;;;;;;;;;5052227;28;20139;-64
2023/04/23 01:46:37;;;;;;;4.38;3.13;;;;;;;;;;5052325;28;20404;-64
2023/04/23 01:49:03;;;;;;;3.63;3.33;;;;;;;;;;5052416;28;20031;-63
2023/04/23 01:51:30;;;;;;;4.50;3.90;;;;;;;;;;5052425;28;20037;-64
2023/04/23 01:53:56;;;;;;;4.03;3.28;;;;;;;;;;5052021;28;20025;-64
2023/04/23 01:56:24;;;;;;;5.60;3.55;;;;;;;;;;5052062;28;20039;-64
2023/04/23 01:58:51;;;;;;;6.22;3.85;;;;;;;;;;5052095;28;20024;-63
2023/04/23 02:01:17;;;;;;;3.70;3.40;;;;;;;;;;5051899;28;20474;-64
2023/04/23 02:03:43;;;;;;;3.15;2.70;;;;;;;;;;5052196;28;20033;-64
2023/04/23 02:06:10;;;;;;;3.95;2.75;;;;;;;;;;5051910;28;20014;-64
2023/04/23 02:08:36;;;;;;;3.80;2.47;;;;;;;;;;5051919;28;20031;-64
2023/04/23 02:11:03;;;;;;;2.30;2.10;;;;;;;;;;5052287;28;20043;-64
2023/04/23 02:13:29;;;;;;;2.30;2.03;;;;;;;;;;5051721;28;20424;-62
2023/04/23 02:15:55;;;;;;;1.73;1.52;;;;;;;;;;5051765;28;20033;-63
2023/04/23 02:18:21;;;;;;;2.00;1.70;;;;;;;;;;5051982;28;20432;-63
2023/04/23 02:20:48;;;;;;;3.63;1.80;;;;;;;;;;5052497;28;20021;-64
2023/04/23 02:23:14;;;;;;;3.10;1.50;;;;;;;;;;5052170;28;20047;-64
2023/04/23 02:25:41;;;;;;;1.58;1.27;;;;;;;;;;5051760;28;20025;-64
2023/04/23 02:28:07;;;;;;;1.27;1.17;;;;;;;;;;5052281;28;20013;-63
2023/04/23 02:30:34;;;;;;;1.30;1.20;;;;;;;;;;5055732;28;20045;-64
2023/04/23 02:33:01;;;;;;;1.15;1.05;;;;;;;;;;5055791;28;20036;-64
2023/04/23 02:35:27;;;;;;;2.45;0.80;;;;;;;;;;5055774;28;20033;-63
2023/04/23 02:37:54;;;;;;;1.48;0.70;;;;;;;;;;5055594;28;20025;-64
2023/04/23 02:40:20;;;;;;;1.00;0.90;;;;;;;;;;5055830;28;20029;-64
2023/04/23 02:42:46;;;;;;;1.10;1.00;;;;;;;;;;5055422;28;20033;-64
2023/04/23 02:45:13;;;;;;;0.77;0.77;;;;;;;;;;5055505;28;20029;-64
2023/04/23 02:47:39;;;;;;;0.82;0.80;;;;;;;;;;5055868;28;20039;-64
2023/04/23 02:50:06;;;;;;;1.67;0.88;;;;;;;;;;5054634;28;20220;-64
2023/04/23 02:52:33;;;;;;;0.80;0.80;;;;;;;;;;5055795;28;20020;-64
2023/04/23 02:55:00;;;;;;;0.90;0.90;;;;;;;;;;5055694;28;20046;-64
2023/04/23 02:57:27;;;;;;;0.70;0.70;;;;;;;;;;5054977;28;20045;-63
2023/04/23 02:59:53;;;;;;;0.50;0.50;;;;;;;;;;5055251;28;20023;-63
2023/04/23 03:02:20;;;;;;;0.70;0.70;;;;;;;;;;5055373;28;20037;-63
2023/04/23 03:04:46;;;;;;;0.50;0.50;;;;;;;;;;5055222;28;20029;-63
2023/04/23 03:07:16;;;;;;;1.75;0.55;;;;;;;;;;5055145;28;20021;-64
2023/04/23 03:09:42;;;;;;;0.57;0.57;;;;;;;;;;5055478;28;20024;-64
2023/04/23 03:12:08;;;;;;;0.82;0.80;;;;;;;;;;5054923;28;20013;-63
2023/04/23 03:14:35;;;;;;;0.68;0.68;;;;;;;;;;5055303;28;20025;-64
2023/04/23 03:17:01;;;;;;;0.68;0.68;;;;;;;;;;5055027;28;20387;-64
2023/04/23 03:19:28;;;;;;;0.80;0.80;;;;;;;;;;5054952;28;20381;-64
2023/04/23 03:21:54;;;;;;;0.85;0.85;;;;;;;;;;5054778;28;20031;-64
2023/04/23 03:24:21;;;;;;;1.40;0.90;;;;;;;;;;5055380;28;20025;-64
2023/04/23 03:26:48;;;;;;;0.70;0.70;;;;;;;;;;5054765;28;20021;-63
2023/04/23 03:29:14;;;;;;;0.68;0.68;;;;;;;;;;5054655;28;20051;-64
2023/04/23 03:31:40;;;;;;;0.68;0.68;;;;;;;;;;5054771;28;20068;-64
2023/04/23 03:34:07;;;;;;;0.70;0.60;;;;;;;;;;5054671;28;20078;-64
2023/04/23 03:36:33;;;;;;;0.80;0.80;;;;;;;;;;5054457;28;20037;-64
2023/04/23 03:39:01;;;;;;;0.77;0.77;;;;;;;;;;5054690;28;20029;-64
2023/04/23 03:41:27;;;;;;;2.45;0.70;;;;;;;;;;5054546;28;20029;-63
2023/04/23 03:43:53;;;;;;;0.68;0.68;;;;;;;;;;5054726;28;20029;-63
2023/04/23 03:46:20;;;;;;;0.90;0.90;;;;;;;;;;5054797;28;20017;-63
2023/04/23 03:48:46;;;;;;;0.80;0.80;;;;;;;;;;5054521;28;20029;-63
2023/04/23 03:51:12;;;;;;;0.70;0.70;;;;;;;;;;5054431;28;20029;-64
2023/04/23 03:53:38;;;;;;;2.33;0.85;;;;;;;;;;5054832;28;20014;-63
2023/04/23 03:56:05;;;;;;;0.60;0.60;;;;;;;;;;5054101;28;20059;-64
2023/04/23 03:58:31;;;;;;;0.60;0.60;;;;;;;;;;5054347;28;20021;-64
2023/04/23 04:00:57;;;;;;;2.15;0.82;;;;;;;;;;5054269;28;20021;-64
2023/04/23 04:03:24;;;;;;;0.98;0.90;;;;;;;;;;5054349;28;20032;-63
2023/04/23 04:05:51;;;;;;;0.60;0.60;;;;;;;;;;5054301;28;20016;-63
2023/04/23 04:08:17;;;;;;;3.70;0.77;;;;;;;;;;5054080;28;20025;-64
2023/04/23 04:10:43;;;;;;;0.88;0.80;;;;;;;;;;5054056;28;20348;-63
2023/04/23 04:13:10;;;;;;;1.08;0.95;;;;;;;;;;5053078;28;20029;-64
2023/04/23 04:15:36;;;;;;;1.13;0.80;;;;;;;;;;5054150;28;20041;-64
2023/04/23 04:18:02;;;;;;;0.70;0.70;;;;;;;;;;5054003;28;20466;-64
2023/04/23 04:20:28;;;;;;;1.15;0.60;;;;;;;;;;5054222;28;20036;-64
2023/04/23 04:22:55;;;;;;;0.68;0.60;;;;;;;;;;5053736;28;20557;-64
2023/04/23 04:25:22;;;;;;;0.82;0.60;;;;;;;;;;5053632;28;20027;-64
2023/04/23 04:27:49;;;;;;;0.93;0.80;;;;;;;;;;5053810;28;20023;-64
2023/04/23 04:30:16;;;;;;;1.13;0.63;;;;;;;;;;5053595;28;20417;-66
2023/04/23 04:32:44;;;;;;;0.60;0.60;;;;;;;;;;5053988;28;20036;-66
2023/04/23 04:35:13;;;;;;;0.43;0.43;;;;;;;;;;5053863;28;20020;-65
2023/04/23 04:37:40;;;;;;;0.50;0.50;;;;;;;;;;5052453;28;20037;-65
2023/04/23 04:40:07;;;;;;;0.68;0.68;;;;;;;;;;5053675;28;20036;-65
2023/04/23 04:42:35;;;;;;;1.15;0.70;;;;;;;;;;5053495;28;20020;-65
2023/04/23 04:45:01;;;;;;;0.40;0.40;;;;;;;;;;5053664;28;20017;-65
2023/04/23 04:47:28;;;;;;;0.80;0.70;;;;;;;;;;5053260;28;20027;-65
2023/04/23 04:49:56;;;;;;;0.50;0.50;;;;;;;;;;5053577;28;20269;-65
2023/04/23 04:52:23;;;;;;;0.52;0.50;;;;;;;;;;5052665;28;20019;-65
2023/04/23 04:54:49;;;;;;;0.52;0.40;;;;;;;;;;5053533;28;20052;-65
2023/04/23 04:57:16;;;;;;;0.77;0.50;;;;;;;;;;5053171;28;20037;-65
2023/04/23 04:59:42;;;;;;;0.75;0.40;;;;;;;;;;5053395;28;20031;-65
2023/04/23 05:02:08;;;;;;;1.13;0.40;;;;;;;;;;5053053;28;20028;-65
2023/04/23 05:04:35;;;;;;;0.70;0.40;;;;;;;;;;5053220;28;20028;-65
2023/04/23 05:07:01;;;;;;;0.40;0.40;;;;;;;;;;5052647;28;20021;-65
2023/04/23 05:09:27;;;;;;;0.60;0.50;;;;;;;;;;5052974;28;20017;-65
2023/04/23 05:11:54;;;;;;;0.50;0.40;;;;;;;;;;5052904;28;20029;-65
2023/04/23 05:14:20;;;;;;;0.45;0.45;;;;;;;;;;5053185;28;20029;-65
2023/04/23 05:16:47;;;;;;;0.50;0.50;;;;;;;;;;5052532;28;20037;-65
2023/04/23 05:19:13;;;;;;;0.70;0.50;;;;;;;;;;5052957;28;20029;-65
2023/04/23 05:21:40;;;;;;;0.90;0.50;;;;;;;;;;5052623;28;20025;-65
2023/04/23 05:24:06;;;;;;;0.90;0.52;;;;;;;;;;5052927;28;20029;-65
2023/04/23 05:26:32;;;;;;;0.50;0.50;;;;;;;;;;5052796;28;20013;-65
2023/04/23 05:28:59;;;;;;;0.55;0.50;;;;;;;;;;5052802;28;20052;-65
2023/04/23 05:31:25;;;;;;;0.50;0.50;;;;;;;;;;5052582;28;20551;-65
2023/04/23 05:33:52;;;;;;;0.40;0.40;;;;;;;;;;5052726;28;20028;-65
2023/04/23 05:36:18;;;;;;;0.43;0.43;;;;;;;;;;5052123;28;20041;-65
2023/04/23 05:38:45;;;;;;;0.30;0.30;;;;;;;;;;5052434;28;20066;-65
2023/04/23 05:41:11;;;;;;;1.77;0.32;;;;;;;;;;5052396;28;20031;-65
2023/04/23 05:43:37;;;;;;;0.40;0.40;;;;;;;;;;5052645;28;20027;-65
2023/04/23 05:46:06;;;;;;;0.50;0.50;;;;;;;;;;5052242;28;20028;-65
2023/04/23 05:48:32;;;;;;;0.50;0.40;;;;;;;;;;5052215;28;20025;-65
2023/04/23 05:50:59;;;;;;;0.70;0.40;;;;;;;;;;5052079;28;20480;-65
2023/04/23 05:53:25;;;;;;;0.30;0.30;;;;;;;;;;5052248;28;20047;-65
2023/04/23 05:55:52;;;;;;;0.40;0.40;;;;;;;;;;5052226;28;20462;-65
2023/04/23 05:58:18;;;;;;;0.40;0.40;;;;;;;;;;5052142;28;20029;-64
2023/04/23 06:00:45;;;;;;;0.47;0.47;;;;;;;;;;5052029;28;20492;-64
2023/04/23 06:03:11;;;;;;;0.40;0.40;;;;;;;;;;5051220;28;20196;-65
2023/04/23 06:05:37;;;;;;;3.03;0.50;;;;;;;;;;5051882;28;20023;-65
2023/04/23 06:08:04;;;;;;;0.57;0.45;;;;;;;;;;5052094;28;20040;-66
2023/04/23 06:10:30;;;;;;;0.80;0.40;;;;;;;;;;5052256;28;20028;-65
2023/04/23 06:12:56;;;;;;;0.40;0.40;;;;;;;;;;5052002;28;20024;-65
2023/04/23 06:15:25;;;;;;;0.40;0.40;;;;;;;;;;5051693;28;20021;-65
2023/04/23 06:17:53;;;;;;;0.95;0.40;;;;;;;;;;5051804;28;20512;-64
2023/04/23 06:20:19;;;;;;;0.90;0.57;;;;;;;;;;5051964;28;20024;-65
2023/04/23 06:22:45;;;;;;;0.60;0.60;;;;;;;;;;5051863;28;20017;-64
2023/04/23 06:25:12;;;;;;;0.40;0.40;;;;;;;;;;5052093;28;20039;-65
2023/04/23 06:27:38;;;;;;;1.13;0.50;;;;;;;;;;5051727;28;20700;-64
2023/04/23 06:30:05;;;;;;;1.55;0.40;;;;;;;;;;5051557;28;20049;-65
2023/04/23 06:32:31;;;;;;;0.88;0.50;;;;;;;;;;5051832;28;20017;-64
2023/04/23 06:34:57;;;;;;;1.95;0.52;;;;;;;;;;5050740;28;20070;-64
2023/04/23 06:37:25;;;;;;;0.50;0.50;;;;;;;;;;5051990;28;20036;-63
2023/04/23 06:39:51;;;;;;;1.65;0.50;;;;;;;;;;5051668;28;20033;-65
2023/04/23 06:42:17;;;;;;;0.50;0.50;;;;;;;;;;5051884;28;20017;-64
2023/04/23 06:44:45;;;;;;;0.57;0.57;;;;;;;;;;5051653;28;20016;-64
2023/04/23 06:47:12;;;;;;;1.27;0.60;;;;;;;;;;5051585;28;20021;-65
2023/04/23 06:49:39;;;;;;;0.85;0.68;;;;;;;;;;5051501;28;20025;-65
2023/04/23 06:52:05;;;;;;;1.10;0.40;;;;;;;;;;5051875;28;20082;-65
2023/04/23 06:54:31;;;;;;;0.68;0.65;;;;;;;;;;5051383;28;20024;-65
2023/04/23 06:56:58;;;;;;;0.57;0.45;;;;;;;;;;5050281;28;20041;-65
2023/04/23 06:59:24;;;;;;;0.50;0.50;;;;;;;;;;5050416;28;20082;-65
2023/04/23 07:01:50;;;;;;;0.57;0.57;;;;;;;;;;5051764;28;20033;-65
2023/04/23 07:04:17;;;;;;;0.63;0.47;;;;;;;;;;5051366;28;20022;-64
2023/04/23 07:06:43;;;;;;;0.73;0.60;;;;;;;;;;5051368;28;20032;-65
2023/04/23 07:09:09;;;;;;;1.50;0.50;;;;;;;;;;5051583;28;20048;-65
2023/04/23 07:11:36;;;;;;;0.50;0.50;;;;;;;;;;5051426;28;20401;-65
2023/04/23 07:14:03;;;;;;;2.47;0.60;;;;;;;;;;5052026;28;20017;-65
2023/04/23 07:16:32;;;;;;;0.75;0.70;;;;;;;;;;5055633;28;20037;-65
2023/04/23 07:19:00;;;;;;;0.90;0.90;;;;;;;;;;5055413;28;20024;-65
2023/04/23 07:21:27;;;;;;;0.90;0.80;;;;;;;;;;5055573;28;20511;-65
2023/04/23 07:24:05;;;;;;;2.70;0.85;;;;;;;;;;5054851;28;20025;-65
2023/04/23 07:26:35;;;;;;;2.08;0.90;;;;;;;;;;5054943;28;20031;-65
2023/04/23 07:29:02;;;;;;;1.77;0.80;;;;;;;;;;5055402;28;20051;-65
2023/04/23 07:31:28;;;;;;;1.38;0.55;;;;;;;;;;5054776;28;20031;-65
2023/04/23 07:33:55;;;;;;;0.80;0.80;;;;;;;;;;5055268;28;20055;-65
2023/04/23 07:36:22;;;;;;;0.63;0.63;;;;;;;;;;5055076;28;20029;-65
2023/04/23 07:38:49;;;;;;;3.83;0.93;;;;;;;;;;5055528;28;20027;-65
2023/04/23 07:41:16;;;;;;;1.05;1.00;;;;;;;;;;5055028;28;20033;-66
2023/04/23 07:43:43;;;;;;;1.17;0.73;;;;;;;;;;5054829;28;20021;-64
2023/04/23 07:46:09;;;;;;;2.83;1.05;;;;;;;;;;5054684;28;20035;-65
2023/04/23 07:48:35;;;;;;;0.98;0.90;;;;;;;;;;5055049;28;20031;-65
2023/04/23 07:51:02;;;;;;;0.98;0.95;;;;;;;;;;5055057;28;20021;-65
2023/04/23 07:53:28;;;;;;;0.80;0.80;;;;;;;;;;5054925;28;20051;-64
2023/04/23 07:55:55;;;;;;;1.73;0.90;;;;;;;;;;5054795;28;20029;-65
2023/04/23 07:58:22;;;;;;;2.25;0.80;;;;;;;;;;5055243;28;20482;-65
2023/04/23 08:00:48;;;;;;;0.50;0.50;;;;;;;;;;5054357;28;20822;-65
2023/04/23 08:03:15;;;;;;;1.23;0.65;;;;;;;;;;5054746;28;20031;-65
2023/04/23 08:05:41;;;;;;;0.73;0.73;;;;;;;;;;5054626;28;20023;-65
2023/04/23 08:08:08;;;;;;;1.50;0.70;;;;;;;;;;5054118;28;20039;-65
2023/04/23 08:10:35;;;;;;;1.02;0.80;;;;;;;;;;5054077;28;20504;-65
2023/04/23 08:13:01;;;;;;;2.40;0.77;;;;;;;;;;5054008;28;20029;-65
2023/04/23 08:15:28;;;;;;;3.60;0.80;;;;;;;;;;5053707;28;20032;-65
2023/04/23 08:17:54;;;;;;;1.20;0.70;;;;;;;;;;5053692;28;20367;-65
2023/04/23 08:20:20;;;;;;;2.78;0.80;;;;;;;;;;5054154;28;20013;-65
2023/04/23 08:22:47;;;;;;;1.42;0.90;;;;;;;;;;5052638;28;20033;-66
2023/04/23 08:25:13;;;;;;;2.65;0.75;;;;;;;;;;5053362;28;20025;-65
2023/04/23 08:27:39;;;;;;;1.65;0.90;;;;;;;;;;5053465;28;20103;-65
2023/04/23 08:30:07;;;;;;;0.77;0.77;;;;;;;;;;5053423;28;20059;-65
2023/04/23 08:32:33;;;;;;;1.25;1.02;;;;;;;;;;5053941;28;20021;-66
2023/04/23 08:35:00;;;;;;;1.27;0.70;;;;;;;;;;5035791;28;20037;-65
2023/04/23 08:37:26;;;;;;;1.80;0.90;;;;;;;;;;5053579;28;20037;-65
2023/04/23 08:39:52;;;;;;;3.83;0.90;;;;;;;;;;5053435;28;20054;-65
2023/04/23 08:42:37;;;;;;;1.00;0.80;;;;;;;;;;5053761;28;20021;-65
2023/04/23 08:45:04;;;;;;;1.85;1.02;;;;;;;;;;5053308;28;20023;-65
2023/04/23 08:47:32;;;;;;;1.75;0.70;;;;;;;;;;5053533;28;20025;-65
2023/04/23 08:49:59;;;;;;;1.55;0.60;;;;;;;;;;5053319;28;20033;-65
2023/04/23 08:52:26;;;;;;;3.53;0.80;;;;;;;;;;5053309;28;20021;-65
2023/04/23 08:54:56;;;;;;;1.13;0.93;;;;;;;;;;5053310;28;20025;-65
2023/04/23 08:57:23;;;;;;;0.77;0.77;;;;;;;;;;5051881;28;20037;-65
2023/04/23 08:59:49;;;;;;;0.98;0.82;;;;;;;;;;5053054;28;20031;-65
2023/04/23 09:02:16;;;;;;;0.73;0.73;;;;;;;;;;5053525;28;20037;-65
2023/04/23 09:04:44;;;;;;;1.05;0.88;;;;;;;;;;5053179;28;20029;-66
2023/04/23 09:07:11;;;;;;;3.97;0.95;;;;;;;;;;5053222;28;20025;-66
2023/04/23 09:09:38;;;;;;;1.15;0.82;;;;;;;;;;5053102;28;20017;-65
2023/04/23 09:12:05;;;;;;;0.75;0.75;;;;;;;;;;5052866;28;20377;-65
2023/04/23 09:14:32;;;;;;;1.70;0.80;;;;;;;;;;5051460;28;20033;-66
2023/04/23 09:16:59;;;;;;;1.27;0.90;;;;;;;;;;5052754;28;20502;-66
2023/04/23 09:19:29;;;;;;;1.80;0.93;;;;;;;;;;5052787;28;20386;-65
2023/04/23 09:21:57;;;;;;;1.10;1.00;;;;;;;;;;5051535;28;20020;-66
2023/04/23 09:24:24;;;;;;;1.00;0.90;;;;;;;;;;5052913;28;20032;-63
2023/04/23 09:26:51;;;;;;;2.70;1.30;;;;;;;;;;5052794;28;20025;-63
2023/04/23 09:29:19;;;;;;;1.05;1.00;;;;;;;;;;5052303;28;20059;-64
2023/04/23 09:31:55;;;;;;;1.20;1.10;;;;;;;;;;5052711;28;20028;-61
2023/04/23 09:34:22;;;;;;;1.67;1.10;;;;;;;;;;5052656;28;20497;-63
2023/04/23 09:36:50;;;;;;;1.60;1.00;;;;;;;;;;5052124;28;20062;-63
2023/04/23 09:39:17;;;;;;;1.88;1.30;;;;;;;;;;5052388;28;20033;-63
2023/04/23 09:41:47;;;;;;;1.75;1.30;;;;;;;;;;5052225;28;20020;-64
2023/04/23 09:44:23;;;;;;;1.38;1.13;;;;;;;;;;5052345;28;20025;-65
2023/04/23 09:46:49;;;;;;;1.10;1.00;;;;;;;;;;5052313;28;20393;-65
2023/04/23 09:49:16;;;;;;;2.65;1.23;;;;;;;;;;5052755;28;20017;-66
2023/04/23 09:51:46;;;;;;;2.83;1.30;;;;;;;;;;5052429;28;20023;-65
2023/04/23 09:54:15;;;;;;;1.83;1.50;;;;;;;;;;5052404;28;20029;-65
2023/04/23 09:56:42;;;;;;;1.48;1.13;;;;;;;;;;5051787;28;20078;-66
2023/04/23 09:59:21;;;;;;;1.52;0.95;;;;;;;;;;5052294;28;20029;-65
2023/04/23 10:01:48;;;;;;;1.27;1.08;;;;;;;;;;5052060;28;20027;-66
2023/04/23 10:04:18;;;;;;;2.00;1.40;;;;;;;;;;5052025;28;20547;-65
2023/04/23 10:06:45;;;;;;;2.85;1.40;;;;;;;;;;5052091;28;20025;-66
2023/04/23 10:09:11;;;;;;;1.52;1.23;;;;;;;;;;5052207;28;20024;-66
2023/04/23 10:11:38;;;;;;;1.38;1.13;;;;;;;;;;5051986;28;20039;-66
2023/04/23 10:14:04;;;;;;;2.72;1.20;;;;;;;;;;5052257;28;20021;-65
2023/04/23 10:16:31;;;;;;;1.58;1.20;;;;;;;;;;5051832;28;20029;-66
2023/04/23 10:19:00;;;;;;;5.15;1.23;;;;;;;;;;5052103;28;20477;-65
2023/04/23 10:21:28;;;;;;;1.70;1.30;;;;;;;;;;5052340;28;20039;-65
2023/04/23 10:23:55;;;;;;;1.60;1.20;;;;;;;;;;5052079;28;20017;-65
2023/04/23 10:26:23;;;;;;;1.63;1.30;;;;;;;;;;5051894;28;20037;-66
2023/04/23 10:28:50;;;;;;;2.42;1.25;;;;;;;;;;5051629;28;20055;-65
2023/04/23 10:31:19;;;;;;;2.17;1.35;;;;;;;;;;5050560;28;20029;-65
2023/04/23 10:33:49;;;;;;;2.95;1.60;;;;;;;;;;5051859;28;20029;-65
2023/04/23 10:36:16;;;;;;;1.83;1.50;;;;;;;;;;5051904;28;20041;-65
2023/04/23 10:38:43;;;;;;;3.72;1.63;;;;;;;;;;5051636;28;20021;-65
2023/04/23 10:41:10;;;;;;;1.50;1.40;;;;;;;;;;5051767;28;20033;-65
2023/04/23 10:43:36;;;;;;;3.15;1.60;;;;;;;;;;5051738;28;20405;-65
2023/04/23 10:46:03;;;;;;;3.03;1.25;;;;;;;;;;5051630;28;20029;-65
2023/04/23 10:48:29;;;;;;;4.03;1.45;;;;;;;;;;5051904;28;20021;-65
2023/04/23 10:50:58;;;;;;;1.73;1.48;;;;;;;;;;5055201;28;20021;-65
2023/04/23 10:53:25;;;;;;;2.08;1.60;;;;;;;;;;5055507;28;20378;-66
2023/04/23 10:56:05;;;;;;;3.17;1.67;;;;;;;;;;5055327;28;20032;-66
2023/04/23 10:58:50;;;;;;;2.97;1.67;;;;;;;;;;5055757;28;20389;-65
2023/04/23 11:01:18;;;;;;;1.60;1.50;;;;;;;;;;5055771;28;20031;-65
2023/04/23 11:03:46;;;;;;;2.25;1.23;;;;;;;;;;5056178;28;20017;-65
2023/04/23 11:06:16;;;;;;;3.42;1.40;;;;;;;;;;5054167;28;20027;-65
2023/04/23 11:08:52;;;;;;;3.30;1.90;;;;;;;;;;5055394;28;20484;-66
2023/04/23 11:11:24;;;;;;;1.95;1.67;;;;;;;;;;5055692;28;20042;-66
2023/04/23 11:13:52;;;;;;;3.40;1.77;;;;;;;;;;5055847;28;20027;-65
2023/04/23 11:16:23;;;;;;;2.03;1.63;;;;;;;;;;5055246;28;20040;-65
2023/04/23 11:19:03;;;;;;;1.83;1.40;;;;;;;;;;5055936;28;20461;-66
2023/04/23 11:21:48;;;;;;;2.80;1.58;;;;;;;;;;5055429;28;20025;-66
2023/04/23 11:24:14;;;;;;;1.92;1.23;;;;;;;;;;5054907;28;20024;-66
2023/04/23 11:26:42;;;;;;;1.70;1.10;;;;;;;;;;5054902;28;20483;-66
2023/04/23 11:29:11;;;;;;;1.65;1.15;;;;;;;;;;5054829;28;20041;-66
2023/04/23 11:31:37;;;;;;;1.88;1.10;;;;;;;;;;5055022;28;20025;-66
2023/04/23 11:34:03;;;;;;;1.42;1.05;;;;;;;;;;5055484;28;20037;-66
2023/04/23 11:36:30;;;;;;;3.00;1.00;;;;;;;;;;5054695;28;20519;-66
2023/04/23 11:38:57;;;;;;;1.42;0.88;;;;;;;;;;5054670;28;20043;-66
2023/04/23 11:41:23;;;;;;;1.45;0.70;;;;;;;;;;5054684;28;20031;-66
2023/04/23 11:43:49;;;;;;;1.17;0.77;;;;;;;;;;5054570;28;20028;-65
2023/04/23 11:46:16;;;;;;;0.82;0.80;;;;;;;;;;5054869;28;20397;-65
2023/04/23 11:48:42;;;;;;;1.85;0.60;;;;;;;;;;5054660;28;20074;-65
2023/04/23 11:51:08;;;;;;;3.20;0.85;;;;;;;;;;5055347;28;20470;-65
2023/04/23 11:53:35;;;;;;;0.70;0.70;;;;;;;;;;5055064;28;20028;-65
2023/04/23 11:56:01;;;;;;;3.15;0.65;;;;;;;;;;5054812;28;20052;-65
2023/04/23 11:58:27;;;;;;;2.60;0.70;;;;;;;;;;5054606;28;20025;-65
2023/04/23 12:01:01;;;;;;;0.73;0.65;;;;;;;;;;5054425;28;20078;-65
2023/04/23 12:03:28;;;;;;;0.95;0.63;;;;;;;;;;5054586;28;20031;-65
2023/04/23 12:05:55;;;;;;;1.23;0.50;;;;;;;;;;5054149;28;20024;-65
2023/04/23 12:08:21;;;;;;;0.77;0.50;;;;;;;;;;5053969;28;20029;-65
2023/04/23 12:10:48;;;;;;;2.65;0.63;;;;;;;;;;5054503;28;20028;-65
2023/04/23 12:13:17;;;;;;;2.85;0.70;;;;;;;;;;5054464;28;20029;-66
2023/04/23 12:15:48;;;;;;;1.48;0.70;;;;;;;;;;5054380;28;20486;-65
2023/04/23 12:18:15;;;;;;;2.30;0.80;;;;;;;;;;5054748;28;20029;-64
2023/04/23 12:20:42;;;;;;;3.00;0.70;;;;;;;;;;5054154;28;20025;-65
2023/04/23 12:23:08;;;;;;;2.10;0.70;;;;;;;;;;5053725;28;20032;-64
2023/04/23 12:25:35;;;;;;;3.08;0.70;;;;;;;;;;5053836;28;20024;-65
2023/04/23 12:28:03;;;;;;;2.10;0.80;;;;;;;;;;5054210;28;20119;-65
2023/04/23 12:30:30;;;;;;;2.90;0.88;;;;;;;;;;5054117;28;20033;-64
2023/04/23 12:33:00;;;;;;;1.90;0.65;;;;;;;;;;5054225;28;20029;-65
2023/04/23 12:35:43;;;;;;;1.67;0.75;;;;;;;;;;5053614;28;20025;-65
2023/04/23 12:38:22;;;;;;;2.15;0.90;;;;;;;;;;5053495;28;20041;-64
2023/04/23 12:40:49;;;;;;;2.10;1.02;;;;;;;;;;5053890;28;20021;-64
2023/04/23 12:43:15;;;;;;;1.60;0.80;;;;;;;;;;5053903;28;20046;-65
2023/04/23 12:45:42;;;;;;;3.70;0.90;;;;;;;;;;5053906;28;20035;-65
2023/04/23 12:48:08;;;;;;;1.65;0.70;;;;;;;;;;5053751;28;20035;-64
2023/04/23 12:50:34;;;;;;;3.42;0.77;;;;;;;;;;5053125;28;20020;-64
2023/04/23 12:53:01;;;;;;;2.53;1.05;;;;;;;;;;5053634;28;20028;-64
2023/04/23 12:55:27;;;;;;;1.92;0.80;;;;;;;;;;5053791;28;20029;-65
2023/04/23 12:57:54;;;;;;;2.70;1.00;;;;;;;;;;5053085;28;20036;-65
2023/04/23 13:00:20;;;;;;;2.13;0.80;;;;;;;;;;5053392;28;20066;-65
2023/04/23 13:02:47;;;;;;;1.30;1.00;;;;;;;;;;5053026;28;20511;-64
2023/04/23 13:05:13;;;;;;;3.33;1.08;;;;;;;;;;5052967;28;20474;-64
2023/04/23 13:07:39;;;;;;;3.38;0.85;;;;;;;;;;5052941;28;20025;-65
2023/04/23 13:10:06;;;;;;;1.73;0.63;;;;;;;;;;5053053;28;20478;-64
2023/04/23 13:12:32;;;;;;;3.75;0.43;;;;;;;;;;5052580;28;20021;-65
2023/04/23 13:14:58;;;;;;;2.00;0.20;;;;;;;;;;5053673;28;20025;-65
2023/04/23 13:17:25;;;;;;;0.70;0.20;;;;;;;;;;5053159;28;20078;-65
2023/04/23 13:19:52;;;;;;;0.30;0.30;;;;;;;;;;5052739;28;20021;-65
2023/04/23 13:22:18;;;;;;;2.05;0.30;;;;;;;;;;5052832;28;20294;-64
2023/04/23 13:24:44;;;;;;;0.80;0.20;;;;;;;;;;5052877;28;20512;-65
2023/04/23 13:27:11;;;;;;;1.40;0.47;;;;;;;;;;5052651;28;20058;-64
2023/04/23 13:29:38;;;;;;;1.33;0.50;;;;;;;;;;5052993;28;20048;-65
2023/04/23 13:32:05;;;;;;;1.52;0.60;;;;;;;;;;5052952;28;20025;-64
2023/04/23 13:34:33;;;;;;;2.58;0.60;;;;;;;;;;5052931;28;20029;-65
2023/04/23 13:37:04;;;;;;;0.65;0.50;;;;;;;;;;5052719;28;20033;-65
2023/04/23 13:39:30;;;;;;;;;;;;;;;;;;5053088;28;20029;-64
2023/04/23 13:41:57;;;;;;;0.52;0.30;;;;;;;;;;5052440;28;20306;-64
2023/04/23 13:44:23;;;;;;;0.65;0.30;;;;;;;;;;5052456;28;20477;-65
2023/04/23 13:46:49;;;;;;;2.72;0.47;;;;;;;;;;5052528;28;20032;-65
2023/04/23 13:49:16;;;;;;;4.47;0.50;;;;;;;;;;5052036;28;20389;-64
2023/04/23 13:51:42;;;;;;;2.28;0.70;;;;;;;;;;5051256;28;20032;-64
2023/04/23 13:54:08;;;;;;;0.75;0.40;;;;;;;;;;5052168;28;20488;-65
2023/04/23 13:56:35;;;;;;;2.45;0.40;;;;;;;;;;5052112;28;20039;-65
2023/04/23 13:59:03;;;;;;;3.40;0.50;;;;;;;;;;5052327;28;20017;-65
2023/04/23 14:01:29;;;;;;;1.33;0.65;;;;;;;;;;5052057;28;20032;-64
2023/04/23 14:03:58;;;;;;;0.90;0.80;;;;;;;;;;5052059;28;20025;-65
2023/04/23 14:06:25;;;;;;;1.35;0.80;;;;;;;;;;5052093;28;20062;-64
2023/04/23 14:08:51;;;;;;;1.02;0.93;;;;;;;;;;5051972;28;20466;-64
2023/04/23 14:11:18;;;;;;;1.65;1.00;;;;;;;;;;5052161;28;20029;-65
2023/04/23 14:13:44;;;;;;;5.97;2.00;;;;;;;;;;5052170;28;20028;-64
2023/04/23 14:16:10;;;;;;;1.83;0.90;;;;;;;;;;5051971;28;20039;-65
2023/04/23 14:18:37;;;;;;;2.92;1.10;;;;;;;;;;5051772;28;20544;-65
2023/04/23 14:21:03;;;;;;;1.65;0.70;;;;;;;;;;5052013;28;20023;-64
2023/04/23 14:23:38;;;;;;;5.57;1.00;;;;;;;;;;5051911;28;20035;-65
2023/04/23 14:26:09;;;;;;;3.08;1.00;;;;;;;;;;5055642;28;20023;-64
2023/04/23 14:28:45;;;;;;;1.27;0.77;;;;;;;;;;5054731;28;20031;-64
2023/04/23 14:31:11;;;;;;;1.58;0.80;;;;;;;;;;5056008;28;20027;-64
2023/04/23 14:33:37;;;;;;;2.50;1.10;;;;;;;;;;5055664;28;20043;-64
2023/04/23 14:36:04;;;;;;;2.90;1.08;;;;;;;;;;5055921;28;20029;-64
2023/04/23 14:38:30;;;;;;;6.05;1.20;;;;;;;;;;5056144;28;20036;-64
2023/04/23 14:40:56;;;;;;;2.65;1.30;;;;;;;;;;5055731;28;20014;-64
2023/04/23 14:43:23;;;;;;;2.60;0.93;;;;;;;;;;5055940;28;20033;-64